Time;durP1;ratioP1;P1;durP2;ratioP2;P2;SDS_P1;SDS_P2;PMS_P1;PMS_P2;Temp;Humidity;BMP_temperature;BMP_pressure;BME280_temperature;BME280_humidity;BME280_pressure;Samples;Min_cycle;Max_cycle;Signal;HPM_P1;HPM_P2
2022/01/31 00:01:00;;;;;;;4.50;2.80;;;21.10;55.30;;;;;;4991542;28;87950;-83
2022/01/31 00:03:26;;;;;;;4.47;2.92;;;21.10;55.30;;;;;;4991353;28;87715;-84
2022/01/31 00:05:52;;;;;;;6.70;2.80;;;21.10;55.30;;;;;;4990090;28;88834;-85
2022/01/31 00:08:23;;;;;;;5.22;2.67;;;21.10;55.20;;;;;;5005034;28;89440;-84
2022/01/31 00:10:49;;;;;;;4.10;2.47;;;21.10;55.10;;;;;;4991128;28;87202;-83
2022/01/31 00:15:59;;;;;;;5.28;2.55;;;21.10;55.00;;;;;;4991635;28;87873;-83
2022/01/31 00:18:34;;;;;;;3.95;2.53;;;21.10;55.00;;;;;;4991421;28;87702;-83
2022/01/31 00:21:00;;;;;;;5.68;2.97;;;21.10;55.00;;;;;;4989599;28;87390;-84
2022/01/31 00:23:25;;;;;;;6.40;2.70;;;21.10;54.80;;;;;;5006688;28;89571;-83
2022/01/31 00:25:51;;;;;;;5.13;2.97;;;21.10;54.80;;;;;;4991680;28;87686;-83
2022/01/31 00:28:17;;;;;;;4.15;2.67;;;21.10;54.90;;;;;;4990254;28;87668;-84
2022/01/31 00:30:42;;;;;;;4.40;2.70;;;21.10;54.80;;;;;;4988971;28;88448;-84
2022/01/31 00:33:08;;;;;;;5.50;2.83;;;21.10;54.80;;;;;;4989621;28;87445;-83
2022/01/31 00:35:34;;;;;;;6.78;2.83;;;21.00;54.70;;;;;;4990163;28;88181;-83
2022/01/31 00:38:00;;;;;;;5.40;2.80;;;21.00;54.60;;;;;;4991348;28;87683;-83
2022/01/31 00:40:25;;;;;;;5.13;2.72;;;21.00;54.60;;;;;;4989313;28;86993;-83
2022/01/31 00:42:51;;;;;;;4.93;2.53;;;21.00;54.60;;;;;;5006074;28;89208;-83
2022/01/31 00:45:24;;;;;;;5.85;2.85;;;21.00;54.40;;;;;;4989085;28;88817;-83
2022/01/31 00:48:00;;;;;;;4.10;2.72;;;21.00;54.60;;;;;;4990897;28;87221;-83
2022/01/31 00:50:26;;;;;;;4.22;2.58;;;21.00;54.40;;;;;;4989821;28;87480;-83
2022/01/31 00:52:52;;;;;;;5.20;2.70;;;21.00;54.50;;;;;;4990003;28;87491;-84
2022/01/31 00:55:20;;;;;;;3.75;2.40;;;21.00;54.50;;;;;;4989756;28;88488;-83
2022/01/31 00:57:45;;;;;;;4.55;2.28;;;21.00;54.50;;;;;;4988307;28;92388;-83
2022/01/31 01:00:12;;;;;;;4.47;2.45;;;21.00;54.50;;;;;;4990769;28;87466;-83
2022/01/31 01:02:38;;;;;;;5.28;2.92;;;21.00;54.30;;;;;;4990896;28;87578;-83
2022/01/31 01:05:04;;;;;;;5.90;2.95;;;21.00;54.50;;;;;;4990469;28;86856;-83
2022/01/31 01:07:30;;;;;;;5.32;2.92;;;21.00;54.30;;;;;;4989242;28;87687;-83
2022/01/31 01:09:55;;;;;;;4.38;2.70;;;21.00;54.30;;;;;;4990176;28;87494;-83
2022/01/31 01:12:21;;;;;;;5.13;2.72;;;21.00;54.20;;;;;;4990884;28;86914;-83
2022/01/31 01:14:49;;;;;;;4.40;2.72;;;21.00;54.20;;;;;;4989766;28;87850;-83
2022/01/31 01:17:14;;;;;;;4.68;2.25;;;21.00;54.10;;;;;;4989150;28;87776;-83
2022/01/31 01:19:40;;;;;;;5.05;2.95;;;20.90;54.10;;;;;;4988940;28;88505;-83
2022/01/31 01:22:06;;;;;;;5.18;2.97;;;20.90;54.00;;;;;;4989053;28;88142;-83
2022/01/31 01:24:32;;;;;;;5.68;2.83;;;20.90;53.90;;;;;;4989916;28;88004;-83
2022/01/31 01:26:57;;;;;;;4.93;2.75;;;20.90;54.50;;;;;;4990240;28;87316;-84
2022/01/31 01:29:23;;;;;;;4.95;2.50;;;20.90;53.80;;;;;;4989434;28;87032;-83
2022/01/31 01:31:50;;;;;;;5.22;2.72;;;20.90;54.00;;;;;;4990143;28;87370;-83
2022/01/31 01:34:16;;;;;;;4.55;2.65;;;20.90;53.80;;;;;;4990294;28;88178;-83
2022/01/31 01:36:44;;;;;;;7.53;2.85;;;20.90;53.80;;;;;;4989800;28;87574;-83
2022/01/31 01:39:10;;;;;;;4.05;2.55;;;20.90;53.70;;;;;;4989335;28;87075;-83
2022/01/31 01:41:43;;;;;;;4.07;2.47;;;20.90;53.90;;;;;;4990276;28;87368;-83
2022/01/31 01:44:08;;;;;;;6.20;3.22;;;20.90;53.70;;;;;;4988431;28;89058;-84
2022/01/31 01:46:34;;;;;;;4.05;2.63;;;20.90;53.80;;;;;;4990428;28;87620;-83
2022/01/31 01:49:00;;;;;;;4.57;2.58;;;20.90;53.90;;;;;;4989393;28;86825;-83
2022/01/31 01:51:26;;;;;;;4.88;2.70;;;20.90;53.90;;;;;;4990770;28;87459;-84
2022/01/31 01:53:51;;;;;;;4.90;2.65;;;20.90;53.70;;;;;;5004984;28;90038;-83
2022/01/31 01:56:17;;;;;;;4.07;2.30;;;20.80;53.60;;;;;;4990021;28;87772;-82
2022/01/31 01:58:44;;;;;;;4.38;2.42;;;20.80;53.60;;;;;;4989691;28;86935;-82
2022/01/31 02:01:11;;;;;;;4.25;2.45;;;20.80;53.50;;;;;;4989641;28;88084;-83
2022/01/31 02:03:38;;;;;;;4.85;2.28;;;20.80;53.60;;;;;;4990016;28;87376;-83
2022/01/31 02:06:05;;;;;;;5.35;2.60;;;20.80;53.60;;;;;;4989914;28;87392;-84
2022/01/31 02:08:40;;;;;;;4.07;2.45;;;20.80;54.10;;;;;;4988857;28;88680;-84
2022/01/31 02:11:11;;;;;;;5.43;2.33;;;20.80;53.30;;;;;;4989435;28;87204;-84
2022/01/31 02:13:37;;;;;;;4.90;2.80;;;20.80;53.40;;;;;;4989625;28;87908;-83
2022/01/31 02:16:12;;;;;;;4.63;2.63;;;20.80;53.30;;;;;;4989564;28;87179;-83
2022/01/31 02:18:47;;;;;;;4.82;2.85;;;20.80;53.30;;;;;;4988093;28;87454;-83
2022/01/31 02:21:13;;;;;;;5.18;2.58;;;20.80;53.30;;;;;;4989228;28;87561;-83
2022/01/31 02:23:39;;;;;;;4.63;2.50;;;20.80;53.30;;;;;;4989977;28;87806;-82
2022/01/31 02:26:06;;;;;;;4.25;2.40;;;20.80;53.30;;;;;;4989890;28;87500;-84
2022/01/31 02:28:34;;;;;;;5.00;2.70;;;20.80;53.30;;;;;;4989532;28;87965;-84
2022/01/31 02:31:01;;;;;;;4.90;2.50;;;20.80;53.20;;;;;;4989124;28;87529;-82
2022/01/31 02:33:27;;;;;;;3.92;2.30;;;20.70;53.10;;;;;;4989342;28;88848;-83
2022/01/31 02:35:57;;;;;;;4.05;2.17;;;20.70;53.10;;;;;;4988516;28;88226;-83
2022/01/31 02:38:24;;;;;;;4.85;2.60;;;20.80;53.10;;;;;;4989086;28;87676;-83
2022/01/31 02:40:50;;;;;;;5.25;2.95;;;20.70;53.00;;;;;;4989409;28;86945;-83
2022/01/31 02:43:26;;;;;;;5.13;2.72;;;20.70;52.90;;;;;;4988993;28;89559;-83
2022/01/31 02:45:54;;;;;;;6.47;2.65;;;20.70;52.90;;;;;;4989397;28;86958;-83
2022/01/31 02:48:23;;;;;;;4.72;2.30;;;20.70;53.00;;;;;;4989246;28;87666;-83
2022/01/31 02:50:49;;;;;;;5.00;2.50;;;20.70;52.90;;;;;;4987809;28;88700;-83
2022/01/31 02:55:47;;;;;;;5.07;2.53;;;20.70;52.90;;;;;;4992738;28;88049;-83
2022/01/31 02:58:14;;;;;;;4.70;2.45;;;20.70;52.70;;;;;;4991992;28;88262;-83
2022/01/31 03:00:40;;;;;;;3.65;2.20;;;20.70;52.70;;;;;;4991988;28;87061;-82
2022/01/31 03:03:07;;;;;;;4.97;2.60;;;20.70;52.60;;;;;;4993049;28;87576;-83
2022/01/31 03:05:33;;;;;;;4.90;2.28;;;20.70;53.20;;;;;;4991085;28;87738;-83
2022/01/31 03:07:59;;;;;;;4.50;2.55;;;20.70;52.60;;;;;;4992671;28;87721;-83
2022/01/31 03:10:25;;;;;;;6.22;3.00;;;20.70;52.70;;;;;;4992631;28;87527;-83
2022/01/31 03:12:50;;;;;;;3.85;2.25;;;20.70;52.60;;;;;;4992351;28;89275;-83
2022/01/31 03:15:16;;;;;;;4.75;2.30;;;20.70;52.50;;;;;;4992945;28;87487;-83
2022/01/31 03:17:46;;;;;;;4.50;2.20;;;20.60;52.50;;;;;;4992721;28;86922;-83
2022/01/31 03:20:13;;;;;;;4.22;2.33;;;20.70;52.50;;;;;;4991602;28;87351;-83
2022/01/31 03:22:38;;;;;;;5.25;2.50;;;20.70;52.50;;;;;;4992482;28;89017;-84
2022/01/31 03:25:04;;;;;;;4.90;2.50;;;20.70;52.60;;;;;;4992769;28;88809;-83
2022/01/31 03:27:32;;;;;;;5.10;2.38;;;20.60;52.40;;;;;;4991869;28;87842;-83
2022/01/31 03:29:58;;;;;;;5.22;2.60;;;20.60;52.40;;;;;;4991223;28;87707;-84
2022/01/31 03:32:24;;;;;;;4.80;2.47;;;20.60;52.40;;;;;;5006496;28;90829;-85
2022/01/31 03:34:49;;;;;;;6.03;2.63;;;20.60;52.60;;;;;;4991301;28;87443;-83
2022/01/31 03:37:15;;;;;;;4.50;2.10;;;20.60;52.30;;;;;;4992674;28;87935;-84
2022/01/31 03:39:41;;;;;;;5.28;2.40;;;20.60;52.40;;;;;;4992165;28;87136;-84
2022/01/31 03:42:06;;;;;;;4.45;2.58;;;20.60;52.30;;;;;;4991252;28;87776;-84
2022/01/31 03:44:32;;;;;;;4.20;2.20;;;20.60;52.20;;;;;;4990624;28;88101;-84
2022/01/31 03:46:58;;;;;;;4.72;2.45;;;20.60;52.20;;;;;;4992065;28;87967;-84
2022/01/31 03:49:24;;;;;;;4.90;2.30;;;20.60;52.10;;;;;;4991686;28;87822;-85
2022/01/31 03:51:49;;;;;;;5.10;2.28;;;20.60;52.20;;;;;;4989384;28;88764;-84
2022/01/31 03:54:15;;;;;;;5.20;2.53;;;20.60;52.20;;;;;;4990299;28;87491;-85
2022/01/31 03:56:41;;;;;;;4.35;2.20;;;20.50;52.20;;;;;;4991194;28;87082;-84
2022/01/31 03:59:07;;;;;;;4.03;2.38;;;20.50;52.20;;;;;;4991210;28;87702;-85
2022/01/31 04:01:33;;;;;;;3.78;2.33;;;20.60;52.10;;;;;;4992078;28;87720;-84
2022/01/31 04:03:59;;;;;;;4.43;2.10;;;20.60;52.00;;;;;;4991078;28;88337;-84
2022/01/31 04:06:24;;;;;;;6.10;2.25;;;20.60;52.00;;;;;;4990255;28;87421;-84
2022/01/31 04:08:51;;;;;;;4.32;1.98;;;20.60;51.90;;;;;;4990764;28;87744;-84
2022/01/31 04:11:16;;;;;;;3.50;1.90;;;20.50;51.90;;;;;;4990732;28;87929;-85
2022/01/31 04:13:42;;;;;;;4.85;2.53;;;20.50;51.90;;;;;;4991738;28;88062;-84
2022/01/31 04:16:15;;;;;;;4.07;2.35;;;20.50;52.00;;;;;;4991474;28;88794;-84
2022/01/31 04:18:41;;;;;;;4.15;1.90;;;20.50;52.00;;;;;;4991398;28;87015;-83
2022/01/31 04:21:07;;;;;;;4.80;2.38;;;20.50;51.90;;;;;;4990531;28;87894;-84
2022/01/31 04:23:32;;;;;;;3.80;2.13;;;20.50;51.90;;;;;;4991292;28;87986;-84
2022/01/31 04:26:11;;;;;;;3.85;2.20;;;20.50;51.90;;;;;;4990883;28;87236;-83
2022/01/31 04:28:45;;;;;;;5.78;2.50;;;20.50;51.80;;;;;;4990305;28;86782;-84
2022/01/31 04:33:50;;;;;;;3.88;2.30;;;20.50;51.70;;;;;;4991062;28;87837;-84
2022/01/31 04:36:24;;;;;;;3.90;1.90;;;20.50;51.70;;;;;;4990627;28;88227;-84
2022/01/31 04:38:50;;;;;;;4.32;2.22;;;20.50;52.50;;;;;;4990842;28;88015;-84
2022/01/31 04:41:17;;;;;;;4.95;2.35;;;20.50;51.70;;;;;;4990780;28;88687;-84
2022/01/31 04:43:44;;;;;;;4.50;2.38;;;20.50;51.80;;;;;;4990366;28;87951;-84
2022/01/31 04:46:10;;;;;;;3.42;2.05;;;20.40;51.60;;;;;;4991282;28;87447;-84
2022/01/31 04:48:36;;;;;;;3.65;1.95;;;20.40;51.70;;;;;;4991421;28;87628;-84
2022/01/31 04:51:02;;;;;;;3.08;2.03;;;20.40;51.50;;;;;;4989326;28;90744;-84
2022/01/31 04:53:28;;;;;;;3.72;2.00;;;20.40;51.60;;;;;;4989518;28;90118;-84
2022/01/31 04:55:54;;;;;;;4.30;2.20;;;20.40;51.60;;;;;;5004751;22;87376;-80
2022/01/31 04:58:22;;;;;;;3.47;1.80;;;20.40;51.70;;;;;;4950009;28;87677;-80
2022/01/31 05:00:48;;;;;;;3.38;2.03;;;20.50;51.70;;;;;;4950485;28;88774;-83
2022/01/31 05:03:16;;;;;;;2.78;1.90;;;20.40;51.60;;;;;;4951782;28;88482;-82
2022/01/31 05:05:43;;;;;;;3.95;1.83;;;20.40;51.60;;;;;;4950285;28;87909;-82
2022/01/31 05:08:09;;;;;;;3.03;1.75;;;20.50;51.70;;;;;;4949765;28;88242;-79
2022/01/31 05:10:38;;;;;;;4.30;2.20;;;20.40;51.40;;;;;;4951174;28;87594;-81
2022/01/31 05:13:03;;;;;;;3.40;2.10;;;20.40;51.50;;;;;;4951380;28;87958;-83
2022/01/31 05:15:34;;;;;;;3.55;2.03;;;20.40;51.40;;;;;;4950078;28;87418;-80
2022/01/31 05:18:01;;;;;;;3.30;2.00;;;20.40;51.30;;;;;;4951791;28;87972;-83
2022/01/31 05:20:27;;;;;;;3.83;2.00;;;20.40;51.20;;;;;;4950320;28;88129;-82
2022/01/31 05:22:52;;;;;;;5.05;2.22;;;20.40;51.20;;;;;;4951480;28;88047;-81
2022/01/31 05:25:18;;;;;;;3.42;2.03;;;20.40;51.30;;;;;;4950872;28;88492;-81
2022/01/31 05:27:44;;;;;;;4.15;2.05;;;20.40;51.30;;;;;;4950496;28;86890;-79
2022/01/31 05:30:10;;;;;;;3.58;1.75;;;20.30;51.30;;;;;;4949621;28;88684;-79
2022/01/31 05:32:35;;;;;;;3.30;1.83;;;20.30;51.20;;;;;;4950206;28;87709;-79
2022/01/31 05:35:04;;;;;;;4.25;2.25;;;20.30;51.00;;;;;;4950870;28;87652;-80
2022/01/31 05:37:30;;;;;;;4.65;2.10;;;20.40;51.10;;;;;;4950666;28;87458;-79
2022/01/31 05:39:56;;;;;;;3.05;1.75;;;20.30;51.10;;;;;;4950391;28;87503;-83
2022/01/31 05:42:21;;;;;;;4.18;1.85;;;20.30;51.10;;;;;;4951823;28;88611;-83
2022/01/31 05:44:47;;;;;;;3.38;1.80;;;20.30;51.10;;;;;;4951462;28;88005;-78
2022/01/31 05:47:17;;;;;;;5.10;1.85;;;20.30;51.10;;;;;;4950653;28;86935;-81
2022/01/31 05:49:42;;;;;;;4.63;2.20;;;20.30;51.10;;;;;;4949339;28;88703;-79
2022/01/31 05:52:08;;;;;;;3.65;2.25;;;20.30;51.00;;;;;;4948945;28;92345;-80
2022/01/31 05:54:36;;;;;;;5.00;2.33;;;20.30;50.80;;;;;;4951535;28;87003;-83
2022/01/31 05:57:02;;;;;;;3.63;1.90;;;20.30;50.80;;;;;;4950941;28;87382;-79
2022/01/31 05:59:30;;;;;;;4.53;2.17;;;20.30;50.90;;;;;;4950665;28;88247;-81
2022/01/31 06:02:01;;;;;;;3.13;1.63;;;20.30;50.90;;;;;;4950871;28;87456;-81
2022/01/31 06:04:27;;;;;;;3.67;1.95;;;20.30;50.80;;;;;;4951102;28;88117;-82
2022/01/31 06:06:53;;;;;;;4.47;1.92;;;20.30;50.90;;;;;;4950886;28;86930;-79
2022/01/31 06:09:19;;;;;;;4.45;1.98;;;20.30;50.80;;;;;;4950786;28;88052;-84
2022/01/31 06:11:47;;;;;;;3.47;1.70;;;20.30;50.90;;;;;;4950482;28;88087;-80
2022/01/31 06:14:13;;;;;;;2.95;1.67;;;20.20;50.60;;;;;;4948823;28;88722;-78
2022/01/31 06:16:38;;;;;;;4.13;1.88;;;20.20;50.40;;;;;;4949399;28;87094;-80
2022/01/31 06:19:04;;;;;;;5.90;2.20;;;20.30;50.50;;;;;;4947153;28;88570;-80
2022/01/31 06:21:29;;;;;;;4.15;1.85;;;20.30;50.40;;;;;;4948694;28;88032;-83
2022/01/31 06:23:55;;;;;;;4.20;2.17;;;20.30;50.70;;;;;;4950862;28;87833;-82
2022/01/31 06:26:22;;;;;;;6.40;2.53;;;20.30;51.10;;;;;;4948969;28;88527;-81
2022/01/31 06:28:50;;;;;;;6.47;2.20;;;20.40;51.10;;;;;;4948692;28;87543;-82
2022/01/31 06:31:16;;;;;;;5.60;1.80;;;20.50;50.80;;;;;;4950039;28;87419;-82
2022/01/31 06:33:42;;;;;;;5.32;2.38;;;20.50;50.80;;;;;;4950328;28;87019;-78
2022/01/31 06:36:08;;;;;;;5.68;2.20;;;20.60;50.80;;;;;;4950111;28;87009;-80
2022/01/31 06:38:38;;;;;;;4.03;2.22;;;20.60;49.70;;;;;;4949113;28;89684;-80
2022/01/31 06:41:07;;;;;;;5.45;1.88;;;20.70;50.20;;;;;;4949537;28;87938;-81
2022/01/31 06:43:35;;;;;;;5.28;2.33;;;20.70;50.50;;;;;;4949796;28;87732;-82
2022/01/31 06:46:00;;;;;;;6.25;2.40;;;20.70;50.30;;;;;;4949358;28;88379;-79
2022/01/31 06:48:26;;;;;;;5.07;2.17;;;20.70;50.30;;;;;;4949241;28;87568;-81
2022/01/31 06:50:51;;;;;;;4.75;2.20;;;20.80;50.40;;;;;;4949399;28;87982;-80
2022/01/31 06:53:18;;;;;;;4.75;2.20;;;20.80;50.50;;;;;;4950523;28;87646;-81
2022/01/31 06:55:44;;;;;;;4.85;2.30;;;20.80;50.30;;;;;;4950294;28;86922;-79
2022/01/31 06:58:09;;;;;;;5.93;2.55;;;20.80;50.30;;;;;;4949713;28;87767;-83
2022/01/31 07:00:35;;;;;;;3.97;2.13;;;20.80;50.20;;;;;;4949518;28;88114;-79
2022/01/31 07:03:03;;;;;;;8.95;2.40;;;20.80;50.00;;;;;;4949942;28;88175;-79
2022/01/31 07:05:29;;;;;;;4.40;1.88;;;20.90;49.90;;;;;;4949765;28;87692;-83
2022/01/31 07:07:54;;;;;;;5.75;1.70;;;20.90;49.40;;;;;;4949213;28;88811;-79
2022/01/31 07:10:20;;;;;;;5.22;1.73;;;20.90;49.40;;;;;;4949941;28;87428;-81
2022/01/31 07:12:52;;;;;;;4.13;1.90;;;20.90;49.30;;;;;;4949653;28;86978;-79
2022/01/31 07:15:18;;;;;;;5.00;1.90;;;20.90;48.60;;;;;;4948086;28;89790;-79
2022/01/31 07:17:44;;;;;;;6.43;2.28;;;20.90;49.00;;;;;;4949661;28;88596;-81
2022/01/31 07:20:19;;;;;;;4.65;1.90;;;20.90;48.80;;;;;;4949739;28;87563;-80
2022/01/31 07:22:50;;;;;;;7.72;2.40;;;20.90;48.80;;;;;;4949455;28;87169;-78
2022/01/31 07:25:32;;;;;;;5.05;1.90;;;20.90;49.10;;;;;;4949817;28;87174;-79
2022/01/31 07:27:58;;;;;;;5.13;1.77;;;20.80;49.50;;;;;;4948169;28;89991;-80
2022/01/31 07:30:23;;;;;;;3.80;1.90;;;20.90;49.30;;;;;;4949110;28;88152;-79
2022/01/31 07:32:49;;;;;;;6.38;2.40;;;20.80;49.20;;;;;;4949861;28;87933;-79
2022/01/31 07:35:15;;;;;;;6.50;2.33;;;20.80;49.50;;;;;;4949642;28;87548;-79
2022/01/31 07:37:41;;;;;;;4.80;2.40;;;20.80;47.20;;;;;;4949641;28;87576;-78
2022/01/31 07:40:07;;;;;;;6.38;2.60;;;20.80;46.70;;;;;;4951643;28;87829;-78
2022/01/31 07:42:32;;;;;;;7.57;2.10;;;20.70;47.50;;;;;;4953834;28;87685;-81
2022/01/31 07:44:58;;;;;;;10.25;2.70;;;20.70;48.70;;;;;;4952506;28;86594;-81
2022/01/31 07:47:24;;;;;;;8.98;2.70;;;20.70;48.20;;;;;;4952626;28;88375;-82
2022/01/31 07:49:51;;;;;;;10.10;2.63;;;20.80;47.30;;;;;;4950299;28;90619;-81
2022/01/31 07:52:17;;;;;;;7.57;2.53;;;20.70;47.20;;;;;;4950753;28;88903;-80
2022/01/31 07:54:44;;;;;;;15.95;3.25;;;20.80;47.20;;;;;;4952693;28;87445;-80
2022/01/31 07:57:10;;;;;;;10.00;2.70;;;20.80;47.60;;;;;;4952048;28;87451;-79
2022/01/31 07:59:38;;;;;;;17.77;3.45;;;20.80;48.20;;;;;;4950499;28;88526;-82
2022/01/31 08:02:04;;;;;;;13.15;3.00;;;20.80;48.90;;;;;;4952563;28;88067;-80
2022/01/31 08:04:30;;;;;;;13.52;3.08;;;20.80;49.70;;;;;;4952944;28;87472;-79
2022/01/31 08:06:55;;;;;;;13.68;3.50;;;20.80;50.20;;;;;;4952432;28;86986;-80
2022/01/31 08:09:21;;;;;;;20.08;3.83;;;20.90;50.80;;;;;;4952173;28;88932;-81
2022/01/31 08:11:46;;;;;;;8.93;2.75;;;20.90;51.80;;;;;;4952825;28;88171;-82
2022/01/31 08:14:16;;;;;;;9.43;3.70;;;20.90;52.20;;;;;;4950476;28;89843;-79
2022/01/31 08:16:42;;;;;;;14.32;3.60;;;20.90;53.00;;;;;;4953435;28;88680;-80
2022/01/31 08:19:08;;;;;;;21.70;4.25;;;20.90;52.60;;;;;;4953470;28;89265;-80
2022/01/31 08:21:35;;;;;;;14.85;4.30;;;20.90;53.10;;;;;;4954109;28;87774;-79
2022/01/31 08:24:00;;;;;;;13.43;4.22;;;20.90;54.10;;;;;;4952933;28;87746;-81
2022/01/31 08:26:26;;;;;;;21.48;4.65;;;20.90;54.40;;;;;;4952488;28;88666;-80
2022/01/31 08:28:59;;;;;;;23.50;5.40;;;20.90;55.60;;;;;;4951725;28;88165;-79
2022/01/31 08:31:33;;;;;;;19.10;4.95;;;20.90;56.60;;;;;;4949547;28;87666;-82
2022/01/31 08:36:42;;;;;;;21.17;4.80;;;20.90;54.20;;;;;;4945970;28;87898;-78
2022/01/31 08:39:11;;;;;;;20.30;4.72;;;20.90;54.00;;;;;;4950541;28;87695;-77
2022/01/31 08:41:39;;;;;;;13.60;3.80;;;20.90;53.90;;;;;;4951539;28;88576;-78
2022/01/31 08:44:05;;;;;;;13.63;4.07;;;20.90;53.50;;;;;;4951677;28;87766;-81
2022/01/31 08:46:33;;;;;;;20.58;4.20;;;20.90;53.90;;;;;;4952813;28;87373;-80
2022/01/31 08:48:59;;;;;;;12.75;4.53;;;20.90;53.60;;;;;;4951902;28;87412;-78
2022/01/31 08:51:25;;;;;;;21.60;4.80;;;20.90;53.10;;;;;;4951570;28;87771;-78
2022/01/31 08:53:51;;;;;;;12.82;4.28;;;20.90;53.00;;;;;;4952558;28;87017;-78
2022/01/31 08:56:18;;;;;;;15.00;4.45;;;20.90;52.80;;;;;;4951409;28;87658;-84
2022/01/31 08:58:45;;;;;;;15.73;4.30;;;20.90;52.90;;;;;;4951743;28;87514;-78
2022/01/31 09:01:12;;;;;;;17.40;4.32;;;20.90;52.40;;;;;;4951487;28;86963;-78
2022/01/31 09:06:20;;;;;;;10.82;3.90;;;20.90;51.10;;;;;;4950394;28;88447;-79
2022/01/31 09:08:46;;;;;;;15.75;4.15;;;20.90;51.10;;;;;;4915179;28;88165;-78
2022/01/31 09:11:12;;;;;;;13.32;3.92;;;20.90;51.20;;;;;;4949716;28;87767;-78
2022/01/31 09:13:38;;;;;;;12.70;3.67;;;20.90;51.00;;;;;;4948568;28;89689;-79
2022/01/31 09:16:04;;;;;;;13.88;3.92;;;20.90;50.90;;;;;;4949452;28;90250;-79
2022/01/31 09:18:30;;;;;;;13.13;4.15;;;20.90;51.10;;;;;;4947907;28;87463;-79
2022/01/31 09:20:57;;;;;;;15.48;4.57;;;20.90;51.20;;;;;;4950659;28;87862;-81
2022/01/31 09:23:24;;;;;;;10.52;4.10;;;20.90;51.30;;;;;;4949612;28;86953;-79
2022/01/31 09:25:50;;;;;;;18.95;4.32;;;20.90;51.40;;;;;;4947864;28;87537;-80
2022/01/31 09:28:16;;;;;;;11.25;3.78;;;20.90;51.80;;;;;;4951306;28;86939;-78
2022/01/31 09:30:45;;;;;;;10.80;3.58;;;20.90;52.30;;;;;;4950734;28;88133;-81
2022/01/31 09:33:12;;;;;;;14.23;4.05;;;20.90;52.00;;;;;;4950001;28;87428;-79
2022/01/31 09:35:43;;;;;;;12.35;3.80;;;20.90;51.90;;;;;;4950620;28;88078;-79
2022/01/31 09:38:12;;;;;;;11.30;3.40;;;20.90;52.20;;;;;;4951330;28;86964;-80
2022/01/31 09:40:38;;;;;;;14.07;3.60;;;20.90;51.80;;;;;;4950902;28;87709;-79
2022/01/31 09:46:15;;;;;;;11.98;3.45;;;21.00;51.50;;;;;;4950298;28;87427;-78
2022/01/31 09:48:43;;;;;;;15.60;4.37;;;21.00;51.60;;;;;;4951476;28;88512;-78
2022/01/31 09:51:18;;;;;;;11.20;3.45;;;20.90;51.70;;;;;;4949481;28;87906;-81
2022/01/31 09:53:51;;;;;;;10.68;3.83;;;20.90;51.80;;;;;;4950764;28;87670;-80
2022/01/31 09:56:21;;;;;;;14.45;3.85;;;20.90;52.20;;;;;;4949668;28;88871;-81
2022/01/31 09:58:47;;;;;;;17.98;3.92;;;20.90;51.60;;;;;;4943821;28;91142;-79
2022/01/31 10:01:16;;;;;;;11.98;4.03;;;20.90;51.40;;;;;;4950503;28;87617;-79
2022/01/31 10:03:50;;;;;;;11.13;3.88;;;20.90;51.50;;;;;;4949815;28;87408;-79
2022/01/31 10:06:23;;;;;;;14.30;4.05;;;20.90;51.30;;;;;;4950009;28;87483;-80
2022/01/31 10:09:11;;;;;;;12.35;3.83;;;20.90;50.10;;;;;;4949734;28;88096;-79
2022/01/31 10:12:12;;;;;;;10.68;3.30;;;20.90;50.40;;;;;;4950751;28;87720;-81
2022/01/31 10:17:37;;;;;;;14.13;3.92;;;20.90;51.00;;;;;;4947740;28;88404;-79
2022/01/31 10:20:08;;;;;;;8.35;3.17;;;20.90;50.90;;;;;;4949182;28;88161;-80
2022/01/31 10:22:36;;;;;;;12.48;3.60;;;20.90;50.70;;;;;;4949073;28;88285;-78
2022/01/31 10:25:07;;;;;;;11.48;3.67;;;20.90;50.70;;;;;;4946961;28;89737;-80
2022/01/31 10:27:34;;;;;;;11.25;3.30;;;20.90;50.60;;;;;;4948669;28;90396;-81
2022/01/31 10:30:09;;;;;;;10.75;3.65;;;20.90;50.60;;;;;;4947746;28;89103;-80
2022/01/31 10:32:37;;;;;;;11.95;3.58;;;20.90;50.50;;;;;;4949570;28;87005;-79
2022/01/31 10:35:11;;;;;;;8.65;3.25;;;20.90;50.20;;;;;;4948121;28;87782;-79
2022/01/31 10:37:40;;;;;;;11.18;3.42;;;20.90;50.30;;;;;;4946015;28;88305;-80
2022/01/31 10:51:57;;;;;;;13.02;3.70;;;20.90;50.90;;;;;;4949166;28;87978;-79
2022/01/31 10:57:00;;;;;;;26.50;5.72;;;21.00;50.10;;;;;;4949925;28;87492;-79
2022/01/31 10:59:37;;;;;;;25.08;5.95;;;20.90;50.70;;;;;;4951017;28;87846;-81
2022/01/31 11:02:06;;;;;;;31.80;7.50;;;21.00;50.50;;;;;;4949814;28;87504;-79
2022/01/31 11:04:37;;;;;;;23.10;5.72;;;21.00;50.30;;;;;;4950576;28;87524;-78
2022/01/31 11:07:06;;;;;;;23.45;5.95;;;20.90;50.70;;;;;;4950682;28;86915;-82
2022/01/31 11:09:32;;;;;;;20.73;4.57;;;20.90;50.40;;;;;;4949540;28;87368;-80
2022/01/31 11:12:01;;;;;;;24.27;6.47;;;21.00;50.80;;;;;;4950046;28;87765;-82
2022/01/31 11:14:27;;;;;;;17.00;5.13;;;20.90;50.30;;;;;;4949844;28;88789;-78
2022/01/31 11:16:57;;;;;;;19.33;5.25;;;20.90;50.90;;;;;;4953343;28;87688;-79
2022/01/31 11:19:32;;;;;;;22.05;5.10;;;20.90;50.90;;;;;;4952887;28;88902;-80
2022/01/31 11:22:06;;;;;;;19.30;5.68;;;20.90;51.00;;;;;;4951826;28;87955;-83
2022/01/31 11:24:44;;;;;;;22.00;5.68;;;20.90;50.30;;;;;;4953583;28;88095;-83
2022/01/31 11:27:17;;;;;;;22.67;6.00;;;21.00;50.10;;;;;;4953480;28;87219;-80
2022/01/31 11:29:55;;;;;;;23.80;6.72;;;21.00;50.20;;;;;;4950545;28;90111;-79
2022/01/31 11:32:21;;;;;;;20.65;5.85;;;20.90;49.80;;;;;;4952368;28;87463;-79
2022/01/31 11:34:47;;;;;;;21.73;5.47;;;21.00;50.20;;;;;;4952914;28;87735;-79
2022/01/31 11:37:16;;;;;;;23.85;6.03;;;20.90;50.60;;;;;;4952401;28;87627;-78
2022/01/31 11:40:04;;;;;;;18.15;5.20;;;20.90;50.30;;;;;;4952005;28;89232;-79
2022/01/31 11:42:30;;;;;;;19.40;5.87;;;21.00;50.40;;;;;;4953425;28;88346;-78
2022/01/31 11:44:59;;;;;;;17.65;5.75;;;21.00;49.90;;;;;;4950195;28;88058;-81
2022/01/31 11:47:45;;;;;;;18.55;5.97;;;21.00;49.90;;;;;;4952694;28;87856;-80
2022/01/31 11:50:14;;;;;;;18.33;5.18;;;21.00;50.00;;;;;;4951987;28;88102;-81
2022/01/31 11:52:54;;;;;;;22.13;5.40;;;21.00;50.10;;;;;;4951672;28;88293;-79
2022/01/31 11:55:25;;;;;;;15.85;5.53;;;21.00;50.20;;;;;;4949755;28;87841;-80
2022/01/31 11:57:53;;;;;;;15.40;4.55;;;21.00;50.50;;;;;;4952302;28;87132;-78
2022/01/31 12:00:22;;;;;;;17.70;5.38;;;21.10;50.40;;;;;;4952313;28;87692;-79
2022/01/31 12:02:48;;;;;;;18.20;5.63;;;21.00;50.20;;;;;;4951527;28;87486;-79
2022/01/31 12:05:25;;;;;;;15.30;4.47;;;21.10;50.00;;;;;;4951739;28;88737;-80
2022/01/31 12:08:02;;;;;;;15.40;4.65;;;21.10;50.30;;;;;;4951247;28;88299;-81
2022/01/31 12:10:38;;;;;;;14.50;4.93;;;21.10;50.40;;;;;;4950796;28;88019;-80
2022/01/31 12:24:05;;;;;;;20.95;5.47;;;21.00;48.70;;;;;;4953299;28;86985;-81
2022/01/31 12:26:43;;;;;;;19.42;5.30;;;21.10;49.20;;;;;;4951645;28;87843;-82
2022/01/31 12:29:11;;;;;;;21.27;5.68;;;21.00;48.80;;;;;;4949345;28;89515;-80
2022/01/31 12:31:57;;;;;;;15.52;5.45;;;21.00;48.20;;;;;;4950779;28;89158;-82
2022/01/31 12:34:24;;;;;;;18.25;5.40;;;21.00;48.30;;;;;;4951920;28;87900;-79
2022/01/31 12:36:52;;;;;;;15.68;5.22;;;21.10;48.40;;;;;;4951809;28;87008;-78
2022/01/31 12:39:30;;;;;;;15.82;5.28;;;21.10;49.00;;;;;;4952174;28;88212;-79
2022/01/31 12:42:03;;;;;;;20.00;5.07;;;21.10;49.10;;;;;;4951950;28;87477;-80
2022/01/31 12:44:31;;;;;;;16.85;5.38;;;21.10;49.20;;;;;;4950052;28;88582;-81
2022/01/31 12:47:26;;;;;;;18.45;5.53;;;21.10;49.40;;;;;;4950458;28;87271;-84
2022/01/31 12:50:30;;;;;;;14.18;4.80;;;21.10;49.40;;;;;;4951030;28;86897;-81
2022/01/31 12:52:57;;;;;;;17.20;5.45;;;21.10;49.10;;;;;;4909302;28;87587;-79
2022/01/31 12:55:27;;;;;;;15.82;4.93;;;21.10;49.00;;;;;;4909931;28;87560;-82
2022/01/31 12:57:53;;;;;;;17.08;5.18;;;21.10;48.90;;;;;;4919858;28;88827;-79
2022/01/31 13:00:40;;;;;;;16.55;5.07;;;21.10;48.50;;;;;;4949722;28;87768;-81
2022/01/31 13:03:06;;;;;;;14.55;5.78;;;21.10;48.60;;;;;;4951115;28;87589;-79
2022/01/31 13:05:33;;;;;;;12.13;4.47;;;21.10;48.80;;;;;;4949775;28;87844;-81
2022/01/31 13:07:59;;;;;;;16.00;4.85;;;21.10;49.00;;;;;;4964417;28;87551;-79
2022/01/31 13:10:42;;;;;;;15.13;4.75;;;21.10;49.10;;;;;;4947282;28;87813;-83
2022/01/31 13:13:07;;;;;;;17.48;5.65;;;21.10;48.80;;;;;;4949300;28;87657;-84
2022/01/31 13:15:33;;;;;;;13.43;4.90;;;21.10;48.80;;;;;;4948822;28;87630;-84
2022/01/31 13:18:06;;;;;;;18.15;5.05;;;21.10;49.30;;;;;;4949503;28;87007;-83
2022/01/31 13:20:34;;;;;;;13.15;4.38;;;21.10;49.50;;;;;;4947930;28;87552;-84
2022/01/31 13:23:00;;;;;;;16.60;4.95;;;21.10;49.30;;;;;;4947628;28;88742;-84
2022/01/31 13:25:27;;;;;;;18.58;5.00;;;21.10;49.20;;;;;;4948019;28;89199;-80
2022/01/31 13:27:53;;;;;;;16.52;5.05;;;21.10;48.90;;;;;;4947712;28;87541;-83
2022/01/31 13:30:21;;;;;;;14.50;5.22;;;21.10;49.00;;;;;;4947251;28;87749;-84
2022/01/31 13:32:50;;;;;;;15.70;5.43;;;21.10;49.00;;;;;;4947392;28;90603;-80